WXM80 ListenWXM80 Stop

You find our weather info also at:

UK Metoffice

WeatherCloud

Weather Underground

Northeastern Weather Network

AWEKAS

Citizen Weather Observer Program (CWOP)

HAMweather, WeatherForYou, PWS Weather


Weather Underground History page Text

Daily Summary for March 13, 2017 Units:  Both    English   Metric
« Previous Day
Next Day »
Daily Weekly Monthly Yearly Custom
  High: Low: Average:
Temperature: 34.8 °F /  1.6 °C 19.9 °F /  -6.7 °C 27.1 °F /  -2.7 °C
Dew Point: 23.0 °F /  -5 °C 6.6 °F /  -14.1 °C 13.1 °F /  -10.5 °C
Humidity: 74 % 41 % 56 %
Wind Speed: 7.8 mph /  12.6 km/h - 2.9 mph /  4.7 km/h
Wind Gust: 19.6 mph /  31.5 km/h - -
Wind:- - SW
Pressure: 30.50 in /  1032.7 hPa 30.26 in /  1024.6 hPa -
Precipitation: 0.00 in /  0 mm    
Historical Graphs
 
 
Tabular Data for March 13, 2017
Time Temperature Dew Point Pressure Wind Wind Speed Wind Gust Humidity Rainfall Rate (Hourly)
00:00 23.3 °F /  -4.8 °C 7.4 °F /  -13.7 °C 30.39 in /  1029 hPa NNW 5.3 mph /  8.5 km/h 13.8 mph /  22.2 km/h 50 % 0.00 in /  0 mm
00:05 23.2 °F /  -4.9 °C 7.7 °F /  -13.5 °C 30.39 in /  1029 hPa NW 6.8 mph /  10.9 km/h 11.5 mph /  18.5 km/h 51 % 0.00 in /  0 mm
00:10 23.1 °F /  -4.9 °C 7.6 °F /  -13.6 °C 30.39 in /  1029 hPa NW 5.4 mph /  8.7 km/h 19.6 mph /  31.5 km/h 51 % 0.00 in /  0 mm
00:15 23.1 °F /  -4.9 °C 7.6 °F /  -13.6 °C 30.39 in /  1029 hPa NW 7.1 mph /  11.4 km/h 11.5 mph /  18.5 km/h 51 % 0.00 in /  0 mm
00:20 23.0 °F /  -5 °C 7.1 °F /  -13.8 °C 30.39 in /  1029 hPa WNW 7.5 mph /  12.1 km/h 11.5 mph /  18.5 km/h 50 % 0.00 in /  0 mm
00:25 22.9 °F /  -5.1 °C 6.6 °F /  -14.1 °C 30.38 in /  1028.7 hPa NW 6.5 mph /  10.5 km/h 12.7 mph /  20.4 km/h 49 % 0.00 in /  0 mm
00:30 22.8 °F /  -5.1 °C 7.4 °F /  -13.7 °C 30.39 in /  1029 hPa West 5.6 mph /  9 km/h 12.7 mph /  20.4 km/h 51 % 0.00 in /  0 mm
00:35 22.7 °F /  -5.2 °C 6.8 °F /  -14 °C 30.39 in /  1029 hPa NNW 5.2 mph /  8.4 km/h 9.2 mph /  14.8 km/h 50 % 0.00 in /  0 mm
00:40 22.6 °F /  -5.2 °C 7.2 °F /  -13.8 °C 30.39 in /  1029 hPa WNW 5.3 mph /  8.5 km/h 9.2 mph /  14.8 km/h 51 % 0.00 in /  0 mm
00:45 22.5 °F /  -5.3 °C 7.1 °F /  -13.8 °C 30.39 in /  1029 hPa NW 3.3 mph /  5.3 km/h 5.8 mph /  9.3 km/h 51 % 0.00 in /  0 mm
00:50 22.5 °F /  -5.3 °C 7.1 °F /  -13.8 °C 30.39 in /  1029 hPa WNW 6.4 mph /  10.3 km/h 11.5 mph /  18.5 km/h 51 % 0.00 in /  0 mm
00:55 22.5 °F /  -5.3 °C 7.5 °F /  -13.6 °C 30.39 in /  1029 hPa NW 6.1 mph /  9.8 km/h 11.5 mph /  18.5 km/h 52 % 0.00 in /  0 mm
01:00 22.5 °F /  -5.3 °C 7.5 °F /  -13.6 °C 30.39 in /  1029 hPa WNW 7.0 mph /  11.3 km/h 11.5 mph /  18.5 km/h 52 % 0.00 in /  0 mm
01:05 22.5 °F /  -5.3 °C 7.5 °F /  -13.6 °C 30.39 in /  1029 hPa North 7.0 mph /  11.3 km/h 11.5 mph /  18.5 km/h 52 % 0.00 in /  0 mm
01:10 22.4 °F /  -5.3 °C 7.4 °F /  -13.7 °C 30.40 in /  1029.3 hPa WNW 3.8 mph /  6.1 km/h 8.1 mph /  13 km/h 52 % 0.00 in /  0 mm
01:15 22.4 °F /  -5.3 °C 7.8 °F /  -13.4 °C 30.40 in /  1029.3 hPa NW 5.9 mph /  9.5 km/h 11.5 mph /  18.5 km/h 53 % 0.00 in /  0 mm
01:20 22.3 °F /  -5.4 °C 7.3 °F /  -13.7 °C 30.40 in /  1029.3 hPa NW 1.7 mph /  2.7 km/h 5.8 mph /  9.3 km/h 52 % 0.00 in /  0 mm
01:25 22.2 °F /  -5.4 °C 7.2 °F /  -13.8 °C 30.41 in /  1029.7 hPa NNW 5.5 mph /  8.9 km/h 9.2 mph /  14.8 km/h 52 % 0.00 in /  0 mm
01:30 22.2 °F /  -5.4 °C 7.2 °F /  -13.8 °C 30.41 in /  1029.7 hPa NNW 6.3 mph /  10.1 km/h 11.5 mph /  18.5 km/h 52 % 0.00 in /  0 mm
01:35 22.2 °F /  -5.4 °C 6.8 °F /  -14 °C 30.41 in /  1029.7 hPa NNW 4.2 mph /  6.8 km/h 9.2 mph /  14.8 km/h 51 % 0.00 in /  0 mm
01:40 22.2 °F /  -5.4 °C 7.6 °F /  -13.6 °C 30.41 in /  1029.7 hPa NW 2.5 mph /  4 km/h 6.9 mph /  11.1 km/h 53 % 0.00 in /  0 mm
01:45 22.2 °F /  -5.4 °C 8.1 °F /  -13.3 °C 30.41 in /  1029.7 hPa NW 5.5 mph /  8.9 km/h 9.0 mph /  14.5 km/h 54 % 0.00 in /  0 mm
01:50 22.2 °F /  -5.4 °C 7.6 °F /  -13.6 °C 30.41 in /  1029.7 hPa NNW 4.2 mph /  6.8 km/h 6.9 mph /  11.1 km/h 53 % 0.00 in /  0 mm
01:55 22.1 °F /  -5.5 °C 7.6 °F /  -13.6 °C 30.41 in /  1029.7 hPa North 4.8 mph /  7.7 km/h 11.5 mph /  18.5 km/h 53 % 0.00 in /  0 mm
02:00 22.1 °F /  -5.5 °C 7.6 °F /  -13.6 °C 30.41 in /  1029.7 hPa WNW 4.6 mph /  7.4 km/h 11.5 mph /  18.5 km/h 53 % 0.00 in /  0 mm
02:05 22.1 °F /  -5.5 °C 7.6 °F /  -13.6 °C 30.41 in /  1029.7 hPa NW 1.9 mph /  3.1 km/h 3.5 mph /  5.6 km/h 53 % 0.00 in /  0 mm
02:10 22.0 °F /  -5.6 °C 7.5 °F /  -13.6 °C 30.41 in /  1029.7 hPa WNW 1.4 mph /  2.3 km/h 9.2 mph /  14.8 km/h 53 % 0.00 in /  0 mm
02:15 22.0 °F /  -5.6 °C 7.5 °F /  -13.6 °C 30.41 in /  1029.7 hPa WNW 2.9 mph /  4.7 km/h 5.0 mph /  8 km/h 53 % 0.00 in /  0 mm
02:20 22.0 °F /  -5.6 °C 7.5 °F /  -13.6 °C 30.42 in /  1030 hPa NW 7.8 mph /  12.6 km/h 11.5 mph /  18.5 km/h 53 % 0.00 in /  0 mm
02:25 21.9 °F /  -5.6 °C 7.4 °F /  -13.7 °C 30.41 in /  1029.7 hPa North 2.4 mph /  3.9 km/h 5.8 mph /  9.3 km/h 53 % 0.00 in /  0 mm
02:31 21.9 °F /  -5.6 °C 7.4 °F /  -13.7 °C 30.42 in /  1030 hPa North 3.9 mph /  6.3 km/h 8.1 mph /  13 km/h 53 % 0.00 in /  0 mm
02:36 22.0 °F /  -5.6 °C 7.5 °F /  -13.6 °C 30.41 in /  1029.7 hPa NW 6.1 mph /  9.8 km/h 9.2 mph /  14.8 km/h 53 % 0.00 in /  0 mm
02:41 22.0 °F /  -5.6 °C 7.9 °F /  -13.4 °C 30.41 in /  1029.7 hPa NNW 2.8 mph /  4.5 km/h 8.1 mph /  13 km/h 54 % 0.00 in /  0 mm
02:46 21.9 °F /  -5.6 °C 7.8 °F /  -13.4 °C 30.41 in /  1029.7 hPa NNW 1.6 mph /  2.6 km/h 5.8 mph /  9.3 km/h 54 % 0.00 in /  0 mm
02:51 21.8 °F /  -5.7 °C 7.3 °F /  -13.7 °C 30.41 in /  1029.7 hPa NW 2.3 mph /  3.7 km/h 8.1 mph /  13 km/h 53 % 0.00 in /  0 mm
02:56 21.8 °F /  -5.7 °C 7.7 °F /  -13.5 °C 30.41 in /  1029.7 hPa WNW 2.4 mph /  3.9 km/h 6.0 mph /  9.7 km/h 54 % 0.00 in /  0 mm
03:01 21.8 °F /  -5.7 °C 7.3 °F /  -13.7 °C 30.41 in /  1029.7 hPa North 4.4 mph /  7.1 km/h 6.9 mph /  11.1 km/h 53 % 0.00 in /  0 mm
03:06 21.8 °F /  -5.7 °C 7.3 °F /  -13.7 °C 30.41 in /  1029.7 hPa NW 5.0 mph /  8 km/h 5.8 mph /  9.3 km/h 53 % 0.00 in /  0 mm
03:11 21.7 °F /  -5.7 °C 7.2 °F /  -13.8 °C 30.41 in /  1029.7 hPa NNW 3.1 mph /  5 km/h 5.0 mph /  8 km/h 53 % 0.00 in /  0 mm
03:16 21.7 °F /  -5.7 °C 7.2 °F /  -13.8 °C 30.41 in /  1029.7 hPa WNW 4.1 mph /  6.6 km/h 6.9 mph /  11.1 km/h 53 % 0.00 in /  0 mm
03:21 21.7 °F /  -5.7 °C 8.0 °F /  -13.3 °C 30.41 in /  1029.7 hPa NNW 3.9 mph /  6.3 km/h 5.8 mph /  9.3 km/h 55 % 0.00 in /  0 mm
03:26 21.7 °F /  -5.7 °C 8.0 °F /  -13.3 °C 30.41 in /  1029.7 hPa North 2.4 mph /  3.9 km/h 5.8 mph /  9.3 km/h 55 % 0.00 in /  0 mm
03:31 21.6 °F /  -5.8 °C 7.9 °F /  -13.4 °C 30.41 in /  1029.7 hPa North 4.5 mph /  7.2 km/h 8.1 mph /  13 km/h 55 % 0.00 in /  0 mm
03:36 21.6 °F /  -5.8 °C 7.5 °F /  -13.6 °C 30.41 in /  1029.7 hPa North 5.1 mph /  8.2 km/h 8.1 mph /  13 km/h 54 % 0.00 in /  0 mm
03:41 21.5 °F /  -5.8 °C 7.4 °F /  -13.7 °C 30.41 in /  1029.7 hPa NE 3.8 mph /  6.1 km/h 6.0 mph /  9.7 km/h 54 % 0.00 in /  0 mm
03:46 21.5 °F /  -5.8 °C 7.4 °F /  -13.7 °C 30.40 in /  1029.3 hPa NNW 5.0 mph /  8 km/h 8.1 mph /  13 km/h 54 % 0.00 in /  0 mm
03:51 21.5 °F /  -5.8 °C 7.4 °F /  -13.7 °C 30.40 in /  1029.3 hPa North 2.0 mph /  3.2 km/h 4.6 mph /  7.4 km/h 54 % 0.00 in /  0 mm
03:56 21.5 °F /  -5.8 °C 7.4 °F /  -13.7 °C 30.40 in /  1029.3 hPa NNW 3.2 mph /  5.1 km/h 5.0 mph /  8 km/h 54 % 0.00 in /  0 mm
04:01 21.4 °F /  -5.9 °C 7.7 °F /  -13.5 °C 30.40 in /  1029.3 hPa North 3.3 mph /  5.3 km/h 6.9 mph /  11.1 km/h 55 % 0.00 in /  0 mm
04:06 21.3 °F /  -5.9 °C 8.0 °F /  -13.3 °C 30.40 in /  1029.3 hPa North 1.3 mph /  2.1 km/h 3.5 mph /  5.6 km/h 56 % 0.00 in /  0 mm
04:11 21.3 °F /  -5.9 °C 8.0 °F /  -13.3 °C 30.41 in /  1029.7 hPa North 1.3 mph /  2.1 km/h 5.0 mph /  8 km/h 56 % 0.00 in /  0 mm
04:16 21.2 °F /  -6 °C 7.5 °F /  -13.6 °C 30.41 in /  1029.7 hPa NNW 4.0 mph /  6.4 km/h 5.8 mph /  9.3 km/h 55 % 0.00 in /  0 mm
04:21 21.2 °F /  -6 °C 7.5 °F /  -13.6 °C 30.41 in /  1029.7 hPa NNW 1.2 mph /  1.9 km/h 3.5 mph /  5.6 km/h 55 % 0.00 in /  0 mm
04:26 21.2 °F /  -6 °C 7.5 °F /  -13.6 °C 30.41 in /  1029.7 hPa North 3.1 mph /  5 km/h 5.8 mph /  9.3 km/h 55 % 0.00 in /  0 mm
04:31 21.1 °F /  -6.1 °C 7.8 °F /  -13.4 °C 30.41 in /  1029.7 hPa NNW 4.3 mph /  6.9 km/h 9.0 mph /  14.5 km/h 56 % 0.00 in /  0 mm
04:36 21.1 °F /  -6.1 °C 7.8 °F /  -13.4 °C 30.42 in /  1030 hPa North 5.5 mph /  8.9 km/h 8.1 mph /  13 km/h 56 % 0.00 in /  0 mm
04:41 21.0 °F /  -6.1 °C 7.7 °F /  -13.5 °C 30.42 in /  1030 hPa North 1.5 mph /  2.4 km/h 3.5 mph /  5.6 km/h 56 % 0.00 in /  0 mm
04:46 21.0 °F /  -6.1 °C 8.1 °F /  -13.3 °C 30.42 in /  1030 hPa NNE 3.6 mph /  5.8 km/h 6.0 mph /  9.7 km/h 57 % 0.00 in /  0 mm
04:51 20.9 °F /  -6.2 °C 8.0 °F /  -13.3 °C 30.42 in /  1030 hPa NW 3.6 mph /  5.8 km/h 6.0 mph /  9.7 km/h 57 % 0.00 in /  0 mm
04:56 20.8 °F /  -6.2 °C 7.9 °F /  -13.4 °C 30.42 in /  1030 hPa North 2.9 mph /  4.7 km/h 5.0 mph /  8 km/h 57 % 0.00 in /  0 mm
05:01 20.8 °F /  -6.2 °C 7.9 °F /  -13.4 °C 30.42 in /  1030 hPa NNE 5.3 mph /  8.5 km/h 9.0 mph /  14.5 km/h 57 % 0.00 in /  0 mm
05:06 20.7 °F /  -6.3 °C 7.9 °F /  -13.4 °C 30.42 in /  1030 hPa NNW 3.3 mph /  5.3 km/h 4.6 mph /  7.4 km/h 57 % 0.00 in /  0 mm
05:11 20.7 °F /  -6.3 °C 8.2 °F /  -13.2 °C 30.42 in /  1030 hPa North 4.9 mph /  7.9 km/h 6.9 mph /  11.1 km/h 58 % 0.00 in /  0 mm
05:16 20.7 °F /  -6.3 °C 8.2 °F /  -13.2 °C 30.43 in /  1030.4 hPa NNE 3.8 mph /  6.1 km/h 5.8 mph /  9.3 km/h 58 % 0.00 in /  0 mm
05:21 20.6 °F /  -6.3 °C 8.5 °F /  -13.1 °C 30.43 in /  1030.4 hPa North 2.7 mph /  4.3 km/h 3.5 mph /  5.6 km/h 59 % 0.00 in /  0 mm
05:26 20.6 °F /  -6.3 °C 8.5 °F /  -13.1 °C 30.43 in /  1030.4 hPa NW 2.2 mph /  3.5 km/h 5.8 mph /  9.3 km/h 59 % 0.00 in /  0 mm
05:31 20.6 °F /  -6.3 °C 8.9 °F /  -12.8 °C 30.43 in /  1030.4 hPa NW 3.6 mph /  5.8 km/h 6.9 mph /  11.1 km/h 60 % 0.00 in /  0 mm
05:36 20.5 °F /  -6.4 °C 8.4 °F /  -13.1 °C 30.43 in /  1030.4 hPa WNW 3.1 mph /  5 km/h 7.0 mph /  11.3 km/h 59 % 0.00 in /  0 mm
05:41 20.4 °F /  -6.4 °C 8.3 °F /  -13.2 °C 30.43 in /  1030.4 hPa North 3.8 mph /  6.1 km/h 10.0 mph /  16.1 km/h 59 % 0.00 in /  0 mm
05:46 20.3 °F /  -6.5 °C 8.2 °F /  -13.2 °C 30.43 in /  1030.4 hPa North 5.7 mph /  9.2 km/h 6.9 mph /  11.1 km/h 59 % 0.00 in /  0 mm
05:51 20.3 °F /  -6.5 °C 8.6 °F /  -13 °C 30.43 in /  1030.4 hPa North 4.0 mph /  6.4 km/h 6.0 mph /  9.7 km/h 60 % 0.00 in /  0 mm
05:56 20.3 °F /  -6.5 °C 8.6 °F /  -13 °C 30.43 in /  1030.4 hPa NNW 2.8 mph /  4.5 km/h 4.0 mph /  6.4 km/h 60 % 0.00 in /  0 mm
06:01 20.2 °F /  -6.6 °C 8.9 °F /  -12.8 °C 30.43 in /  1030.4 hPa NNW 3.3 mph /  5.3 km/h 6.9 mph /  11.1 km/h 61 % 0.00 in /  0 mm
06:06 20.2 °F /  -6.6 °C 8.9 °F /  -12.8 °C 30.43 in /  1030.4 hPa NNW 2.5 mph /  4 km/h 6.9 mph /  11.1 km/h 61 % 0.00 in /  0 mm
06:12 20.2 °F /  -6.6 °C 8.9 °F /  -12.8 °C 30.44 in /  1030.7 hPa NW 3.3 mph /  5.3 km/h 4.6 mph /  7.4 km/h 61 % 0.00 in /  0 mm
06:17 20.2 °F /  -6.6 °C 9.2 °F /  -12.7 °C 30.44 in /  1030.7 hPa NW 0.5 mph /  0.8 km/h 4.6 mph /  7.4 km/h 62 % 0.00 in /  0 mm
06:22 20.1 °F /  -6.6 °C 9.2 °F /  -12.7 °C 30.44 in /  1030.7 hPa NE 3.6 mph /  5.8 km/h 5.8 mph /  9.3 km/h 62 % 0.00 in /  0 mm
06:27 20.1 °F /  -6.6 °C 9.2 °F /  -12.7 °C 30.44 in /  1030.7 hPa North 3.6 mph /  5.8 km/h 5.0 mph /  8 km/h 62 % 0.00 in /  0 mm
06:32 20.0 °F /  -6.7 °C 9.4 °F /  -12.6 °C 30.45 in /  1031 hPa North 3.6 mph /  5.8 km/h 6.0 mph /  9.7 km/h 63 % 0.00 in /  0 mm
06:37 20.0 °F /  -6.7 °C 9.4 °F /  -12.6 °C 30.46 in /  1031.4 hPa NW 1.9 mph /  3.1 km/h 5.8 mph /  9.3 km/h 63 % 0.00 in /  0 mm
06:42 20.1 °F /  -6.6 °C 9.5 °F /  -12.5 °C 30.46 in /  1031.4 hPa North 0.4 mph /  0.6 km/h 6.9 mph /  11.1 km/h 63 % 0.00 in /  0 mm
06:47 20.1 °F /  -6.6 °C 9.5 °F /  -12.5 °C 30.45 in /  1031 hPa North 2.4 mph /  3.9 km/h 4.0 mph /  6.4 km/h 63 % 0.00 in /  0 mm
06:52 20.1 °F /  -6.6 °C 9.9 °F /  -12.3 °C 30.46 in /  1031.4 hPa NW 2.4 mph /  3.9 km/h 5.8 mph /  9.3 km/h 64 % 0.00 in /  0 mm
06:57 20.0 °F /  -6.7 °C 10.1 °F /  -12.2 °C 30.46 in /  1031.4 hPa NNW 2.6 mph /  4.2 km/h 5.8 mph /  9.3 km/h 65 % 0.00 in /  0 mm
07:02 20.0 °F /  -6.7 °C 10.1 °F /  -12.2 °C 30.47 in /  1031.7 hPa NNW 2.2 mph /  3.5 km/h 3.5 mph /  5.6 km/h 65 % 0.00 in /  0 mm
07:07 20.0 °F /  -6.7 °C 10.1 °F /  -12.2 °C 30.46 in /  1031.4 hPa NNW 2.8 mph /  4.5 km/h 5.8 mph /  9.3 km/h 65 % 0.00 in /  0 mm
07:12 20.0 °F /  -6.7 °C 10.1 °F /  -12.2 °C 30.47 in /  1031.7 hPa North 2.3 mph /  3.7 km/h 3.5 mph /  5.6 km/h 65 % 0.00 in /  0 mm
07:17 19.9 °F /  -6.7 °C 10.0 °F /  -12.2 °C 30.47 in /  1031.7 hPa NNW 2.3 mph /  3.7 km/h 3.5 mph /  5.6 km/h 65 % 0.00 in /  0 mm
07:22 19.9 °F /  -6.7 °C 10.0 °F /  -12.2 °C 30.47 in /  1031.7 hPa North 3.0 mph /  4.8 km/h 5.0 mph /  8 km/h 65 % 0.00 in /  0 mm
07:27 20.0 °F /  -6.7 °C 10.1 °F /  -12.2 °C 30.46 in /  1031.4 hPa North 0.9 mph /  1.4 km/h 2.3 mph /  3.7 km/h 65 % 0.00 in /  0 mm
07:32 20.0 °F /  -6.7 °C 10.1 °F /  -12.2 °C 30.46 in /  1031.4 hPa NNE 1.8 mph /  2.9 km/h 3.5 mph /  5.6 km/h 65 % 0.00 in /  0 mm
07:37 20.1 °F /  -6.6 °C 9.9 °F /  -12.3 °C 30.46 in /  1031.4 hPa North 2.9 mph /  4.7 km/h 3.5 mph /  5.6 km/h 64 % 0.00 in /  0 mm
07:42 20.2 °F /  -6.6 °C 10.0 °F /  -12.2 °C 30.46 in /  1031.4 hPa North 2.6 mph /  4.2 km/h 3.5 mph /  5.6 km/h 64 % 0.00 in /  0 mm
07:47 20.5 °F /  -6.4 °C 10.2 °F /  -12.1 °C 30.46 in /  1031.4 hPa North 0.7 mph /  1.1 km/h 2.3 mph /  3.7 km/h 64 % 0.00 in /  0 mm
07:53 20.7 °F /  -6.3 °C 10.4 °F /  -12 °C 30.46 in /  1031.4 hPa NNW 4.3 mph /  6.9 km/h 4.6 mph /  7.4 km/h 64 % 0.00 in /  0 mm
07:58 21.1 °F /  -6.1 °C 10.5 °F /  -11.9 °C 30.46 in /  1031.4 hPa North 1.5 mph /  2.4 km/h 3.5 mph /  5.6 km/h 63 % 0.00 in /  0 mm
08:03 21.5 °F /  -5.8 °C 10.5 °F /  -11.9 °C 30.47 in /  1031.7 hPa North 3.6 mph /  5.8 km/h 5.8 mph /  9.3 km/h 62 % 0.00 in /  0 mm
08:08 21.7 °F /  -5.7 °C 10.3 °F /  -12.1 °C 30.47 in /  1031.7 hPa North 1.8 mph /  2.9 km/h 3.0 mph /  4.8 km/h 61 % 0.00 in /  0 mm
08:13 22.1 °F /  -5.5 °C 10.3 °F /  -12.1 °C 30.48 in /  1032.1 hPa NNE 4.6 mph /  7.4 km/h 7.0 mph /  11.3 km/h 60 % 0.00 in /  0 mm
08:18 22.3 °F /  -5.4 °C 10.5 °F /  -11.9 °C 30.48 in /  1032.1 hPa NW 2.7 mph /  4.3 km/h 5.8 mph /  9.3 km/h 60 % 0.00 in /  0 mm
08:23 22.7 °F /  -5.2 °C 11.2 °F /  -11.6 °C 30.48 in /  1032.1 hPa North 1.0 mph /  1.6 km/h 7.0 mph /  11.3 km/h 61 % 0.00 in /  0 mm
08:28 23.0 °F /  -5 °C 10.8 °F /  -11.8 °C 30.49 in /  1032.4 hPa NNW 1.0 mph /  1.6 km/h 5.0 mph /  8 km/h 59 % 0.00 in /  0 mm
08:33 23.3 °F /  -4.8 °C 10.7 °F /  -11.8 °C 30.49 in /  1032.4 hPa North 2.9 mph /  4.7 km/h 4.0 mph /  6.4 km/h 58 % 0.00 in /  0 mm
08:38 23.5 °F /  -4.7 °C 10.5 °F /  -11.9 °C 30.49 in /  1032.4 hPa North 2.8 mph /  4.5 km/h 5.8 mph /  9.3 km/h 57 % 0.00 in /  0 mm
08:43 23.8 °F /  -4.6 °C 11.2 °F /  -11.6 °C 30.49 in /  1032.4 hPa NNE 3.2 mph /  5.1 km/h 3.5 mph /  5.6 km/h 58 % 0.00 in /  0 mm
08:48 24.2 °F /  -4.3 °C 11.9 °F /  -11.2 °C 30.49 in /  1032.4 hPa NNW 0.9 mph /  1.4 km/h 4.6 mph /  7.4 km/h 59 % 0.00 in /  0 mm
08:53 24.5 °F /  -4.2 °C 11.4 °F /  -11.4 °C 30.49 in /  1032.4 hPa NNW 2.0 mph /  3.2 km/h 6.0 mph /  9.7 km/h 57 % 0.00 in /  0 mm
08:58 24.8 °F /  -4 °C 12.1 °F /  -11.1 °C 30.48 in /  1032.1 hPa NNW 1.8 mph /  2.9 km/h 4.6 mph /  7.4 km/h 58 % 0.00 in /  0 mm
09:03 25.0 °F /  -3.9 °C 11.9 °F /  -11.2 °C 30.48 in /  1032.1 hPa North 3.1 mph /  5 km/h 5.8 mph /  9.3 km/h 57 % 0.00 in /  0 mm
09:08 25.1 °F /  -3.8 °C 11.2 °F /  -11.6 °C 30.48 in /  1032.1 hPa NNW 5.1 mph /  8.2 km/h 9.2 mph /  14.8 km/h 55 % 0.00 in /  0 mm
09:13 25.2 °F /  -3.8 °C 11.7 °F /  -11.3 °C 30.48 in /  1032.1 hPa NNW 0.7 mph /  1.1 km/h 3.5 mph /  5.6 km/h 56 % 0.00 in /  0 mm
09:18 25.3 °F /  -3.7 °C 11.4 °F /  -11.4 °C 30.49 in /  1032.4 hPa West 3.1 mph /  5 km/h 5.8 mph /  9.3 km/h 55 % 0.00 in /  0 mm
09:23 25.3 °F /  -3.7 °C 11.0 °F /  -11.7 °C 30.49 in /  1032.4 hPa NW 2.9 mph /  4.7 km/h 4.6 mph /  7.4 km/h 54 % 0.00 in /  0 mm
09:28 25.5 °F /  -3.6 °C 11.1 °F /  -11.6 °C 30.49 in /  1032.4 hPa NW 3.0 mph /  4.8 km/h 4.6 mph /  7.4 km/h 54 % 0.00 in /  0 mm
09:33 25.6 °F /  -3.6 °C 11.2 °F /  -11.6 °C 30.49 in /  1032.4 hPa WNW 3.7 mph /  6 km/h 6.9 mph /  11.1 km/h 54 % 0.00 in /  0 mm
09:38 25.6 °F /  -3.6 °C 11.2 °F /  -11.6 °C 30.49 in /  1032.4 hPa NNW 2.8 mph /  4.5 km/h 4.6 mph /  7.4 km/h 54 % 0.00 in /  0 mm
09:44 25.8 °F /  -3.4 °C 11.4 °F /  -11.4 °C 30.49 in /  1032.4 hPa NW 4.3 mph /  6.9 km/h 6.9 mph /  11.1 km/h 54 % 0.00 in /  0 mm
09:49 25.8 °F /  -3.4 °C 11.4 °F /  -11.4 °C 30.49 in /  1032.4 hPa NNW 1.9 mph /  3.1 km/h 4.6 mph /  7.4 km/h 54 % 0.00 in /  0 mm
09:54 26.0 °F /  -3.3 °C 11.6 °F /  -11.3 °C 30.49 in /  1032.4 hPa NW 2.6 mph /  4.2 km/h 3.5 mph /  5.6 km/h 54 % 0.00 in /  0 mm
09:59 26.0 °F /  -3.3 °C 11.2 °F /  -11.6 °C 30.49 in /  1032.4 hPa NW 3.4 mph /  5.5 km/h 4.6 mph /  7.4 km/h 53 % 0.00 in /  0 mm
10:04 25.8 °F /  -3.4 °C 11.0 °F /  -11.7 °C 30.49 in /  1032.4 hPa NNW 1.8 mph /  2.9 km/h 3.5 mph /  5.6 km/h 53 % 0.00 in /  0 mm
10:09 25.7 °F /  -3.5 °C 11.3 °F /  -11.5 °C 30.49 in /  1032.4 hPa NNW 3.9 mph /  6.3 km/h 4.0 mph /  6.4 km/h 54 % 0.00 in /  0 mm
10:14 25.8 °F /  -3.4 °C 12.2 °F /  -11 °C 30.50 in /  1032.7 hPa WNW 1.2 mph /  1.9 km/h 5.8 mph /  9.3 km/h 56 % 0.00 in /  0 mm
10:19 26.1 °F /  -3.3 °C 12.5 °F /  -10.8 °C 30.50 in /  1032.7 hPa WNW 2.1 mph /  3.4 km/h 3.5 mph /  5.6 km/h 56 % 0.00 in /  0 mm
10:24 26.3 °F /  -3.2 °C 11.9 °F /  -11.2 °C 30.50 in /  1032.7 hPa West 3.5 mph /  5.6 km/h 5.8 mph /  9.3 km/h 54 % 0.00 in /  0 mm
10:29 26.7 °F /  -2.9 °C 13.1 °F /  -10.5 °C 30.50 in /  1032.7 hPa NNW 1.5 mph /  2.4 km/h 4.6 mph /  7.4 km/h 56 % 0.00 in /  0 mm
10:34 27.3 °F /  -2.6 °C 12.8 °F /  -10.7 °C 30.50 in /  1032.7 hPa WNW 3.2 mph /  5.1 km/h 6.9 mph /  11.1 km/h 54 % 0.00 in /  0 mm
10:39 27.6 °F /  -2.4 °C 12.7 °F /  -10.7 °C 30.49 in /  1032.4 hPa WNW 2.2 mph /  3.5 km/h 9.2 mph /  14.8 km/h 53 % 0.00 in /  0 mm
10:44 27.9 °F /  -2.3 °C 13.4 °F /  -10.3 °C 30.49 in /  1032.4 hPa NNW 2.3 mph /  3.7 km/h 4.0 mph /  6.4 km/h 54 % 0.00 in /  0 mm
10:49 28.1 °F /  -2.2 °C 12.7 °F /  -10.7 °C 30.49 in /  1032.4 hPa NNW 3.0 mph /  4.8 km/h 4.6 mph /  7.4 km/h 52 % 0.00 in /  0 mm
10:54 28.2 °F /  -2.1 °C 13.2 °F /  -10.4 °C 30.48 in /  1032.1 hPa NW 1.1 mph /  1.8 km/h 3.5 mph /  5.6 km/h 53 % 0.00 in /  0 mm
10:59 28.7 °F /  -1.8 °C 13.7 °F /  -10.2 °C 30.48 in /  1032.1 hPa North 4.7 mph /  7.6 km/h 6.9 mph /  11.1 km/h 53 % 0.00 in /  0 mm
11:04 28.8 °F /  -1.8 °C 13.4 °F /  -10.3 °C 30.48 in /  1032.1 hPa NNW 2.9 mph /  4.7 km/h 5.8 mph /  9.3 km/h 52 % 0.00 in /  0 mm
11:09 28.7 °F /  -1.8 °C 12.8 °F /  -10.7 °C 30.48 in /  1032.1 hPa NNW 2.9 mph /  4.7 km/h 5.8 mph /  9.3 km/h 51 % 0.00 in /  0 mm
11:14 28.8 °F /  -1.8 °C 13.4 °F /  -10.3 °C 30.49 in /  1032.4 hPa NNW 2.6 mph /  4.2 km/h 6.9 mph /  11.1 km/h 52 % 0.00 in /  0 mm
11:19 29.0 °F /  -1.7 °C 13.1 °F /  -10.5 °C 30.49 in /  1032.4 hPa NW 3.5 mph /  5.6 km/h 6.9 mph /  11.1 km/h 51 % 0.00 in /  0 mm
11:24 29.3 °F /  -1.5 °C 14.3 °F /  -9.8 °C 30.49 in /  1032.4 hPa NW 2.4 mph /  3.9 km/h 6.0 mph /  9.7 km/h 53 % 0.00 in /  0 mm
11:29 29.9 °F /  -1.2 °C 14.4 °F /  -9.8 °C 30.48 in /  1032.1 hPa NW 3.7 mph /  6 km/h 5.8 mph /  9.3 km/h 52 % 0.00 in /  0 mm
11:34 30.2 °F /  -1 °C 13.8 °F /  -10.1 °C 30.47 in /  1031.7 hPa WSW 2.5 mph /  4 km/h 5.8 mph /  9.3 km/h 50 % 0.00 in /  0 mm
11:39 30.9 °F /  -0.6 °C 14.9 °F /  -9.5 °C 30.47 in /  1031.7 hPa WNW 3.9 mph /  6.3 km/h 7.0 mph /  11.3 km/h 51 % 0.00 in /  0 mm
11:44 31.1 °F /  -0.5 °C 14.6 °F /  -9.7 °C 30.48 in /  1032.1 hPa NNW 4.1 mph /  6.6 km/h 8.1 mph /  13 km/h 50 % 0.00 in /  0 mm
11:49 31.7 °F /  -0.2 °C 15.2 °F /  -9.3 °C 30.48 in /  1032.1 hPa WNW 2.8 mph /  4.5 km/h 5.0 mph /  8 km/h 50 % 0.00 in /  0 mm
11:54 32.0 °F /  0 °C 14.5 °F /  -9.7 °C 30.48 in /  1032.1 hPa NNW 2.9 mph /  4.7 km/h 4.6 mph /  7.4 km/h 48 % 0.00 in /  0 mm
11:59 31.9 °F /  -0.1 °C 14.9 °F /  -9.5 °C 30.47 in /  1031.7 hPa NE 0.9 mph /  1.4 km/h 3.5 mph /  5.6 km/h 49 % 0.00 in /  0 mm
12:04 32.4 °F /  0.2 °C 15.3 °F /  -9.3 °C 30.48 in /  1032.1 hPa NW 1.9 mph /  3.1 km/h 3.5 mph /  5.6 km/h 49 % 0.00 in /  0 mm
12:09 32.6 °F /  0.3 °C 14.1 °F /  -9.9 °C 30.47 in /  1031.7 hPa WNW 1.4 mph /  2.3 km/h 3.5 mph /  5.6 km/h 46 % 0.00 in /  0 mm
12:14 32.7 °F /  0.4 °C 13.2 °F /  -10.4 °C 30.47 in /  1031.7 hPa NNE 3.7 mph /  6 km/h 5.0 mph /  8 km/h 44 % 0.00 in /  0 mm
12:19 32.6 °F /  0.3 °C 14.6 °F /  -9.7 °C 30.47 in /  1031.7 hPa NNW 2.5 mph /  4 km/h 4.6 mph /  7.4 km/h 47 % 0.00 in /  0 mm
12:24 32.5 °F /  0.3 °C 13.0 °F /  -10.6 °C 30.47 in /  1031.7 hPa NW 3.8 mph /  6.1 km/h 4.6 mph /  7.4 km/h 44 % 0.00 in /  0 mm
12:29 32.0 °F /  0 °C 11.5 °F /  -11.4 °C 30.46 in /  1031.4 hPa WNW 2.2 mph /  3.5 km/h 5.0 mph /  8 km/h 42 % 0.00 in /  0 mm
12:34 31.9 °F /  -0.1 °C 11.9 °F /  -11.2 °C 30.46 in /  1031.4 hPa NW 0.6 mph /  1 km/h 3.0 mph /  4.8 km/h 43 % 0.00 in /  0 mm
12:39 31.9 °F /  -0.1 °C 12.9 °F /  -10.6 °C 30.46 in /  1031.4 hPa NNW 2.2 mph /  3.5 km/h 3.5 mph /  5.6 km/h 45 % 0.00 in /  0 mm
12:44 32.2 °F /  0.1 °C 13.7 °F /  -10.2 °C 30.45 in /  1031 hPa WSW 1.3 mph /  2.1 km/h 3.5 mph /  5.6 km/h 46 % 0.00 in /  0 mm
12:50 32.8 °F /  0.4 °C 13.2 °F /  -10.4 °C 30.45 in /  1031 hPa SW 3.3 mph /  5.3 km/h 8.1 mph /  13 km/h 44 % 0.00 in /  0 mm
12:55 32.9 °F /  0.5 °C 13.3 °F /  -10.4 °C 30.45 in /  1031 hPa WNW 1.5 mph /  2.4 km/h 3.5 mph /  5.6 km/h 44 % 0.00 in /  0 mm
13:00 32.9 °F /  0.5 °C 12.8 °F /  -10.7 °C 30.44 in /  1030.7 hPa SW 1.2 mph /  1.9 km/h 4.6 mph /  7.4 km/h 43 % 0.00 in /  0 mm
13:05 32.9 °F /  0.5 °C 12.8 °F /  -10.7 °C 30.45 in /  1031 hPa WSW 2.3 mph /  3.7 km/h 4.0 mph /  6.4 km/h 43 % 0.00 in /  0 mm
13:10 32.9 °F /  0.5 °C 12.3 °F /  -10.9 °C 30.44 in /  1030.7 hPa WSW 3.1 mph /  5 km/h 6.9 mph /  11.1 km/h 42 % 0.00 in /  0 mm
13:20 32.8 °F /  0.4 °C 11.6 °F /  -11.3 °C 30.44 in /  1030.7 hPa WNW 3.7 mph /  6 km/h 5.8 mph /  9.3 km/h 41 % 0.00 in /  0 mm
13:25 32.7 °F /  0.4 °C 13.2 °F /  -10.4 °C 30.44 in /  1030.7 hPa WNW 4.5 mph /  7.2 km/h 6.0 mph /  9.7 km/h 44 % 0.00 in /  0 mm
13:30 32.5 °F /  0.3 °C 12.5 °F /  -10.8 °C 30.44 in /  1030.7 hPa West 3.6 mph /  5.8 km/h 5.8 mph /  9.3 km/h 43 % 0.00 in /  0 mm
13:35 32.7 °F /  0.4 °C 11.6 °F /  -11.3 °C 30.43 in /  1030.4 hPa West 5.4 mph /  8.7 km/h 8.1 mph /  13 km/h 41 % 0.00 in /  0 mm
13:40 32.8 °F /  0.4 °C 13.2 °F /  -10.4 °C 30.43 in /  1030.4 hPa West 3.1 mph /  5 km/h 7.0 mph /  11.3 km/h 44 % 0.00 in /  0 mm
13:45 32.9 °F /  0.5 °C 12.3 °F /  -10.9 °C 30.43 in /  1030.4 hPa WSW 4.7 mph /  7.6 km/h 6.0 mph /  9.7 km/h 42 % 0.00 in /  0 mm
13:50 32.7 °F /  0.4 °C 11.6 °F /  -11.3 °C 30.43 in /  1030.4 hPa West 2.9 mph /  4.7 km/h 5.8 mph /  9.3 km/h 41 % 0.00 in /  0 mm
13:55 32.9 °F /  0.5 °C 13.3 °F /  -10.4 °C 30.43 in /  1030.4 hPa WNW 4.4 mph /  7.1 km/h 6.9 mph /  11.1 km/h 44 % 0.00 in /  0 mm
14:00 33.0 °F /  0.6 °C 12.9 °F /  -10.6 °C 30.43 in /  1030.4 hPa NW 2.0 mph /  3.2 km/h 4.6 mph /  7.4 km/h 43 % 0.00 in /  0 mm
14:05 33.2 °F /  0.7 °C 13.1 °F /  -10.5 °C 30.43 in /  1030.4 hPa NNW 2.3 mph /  3.7 km/h 4.6 mph /  7.4 km/h 43 % 0.00 in /  0 mm
14:10 33.3 °F /  0.7 °C 14.7 °F /  -9.6 °C 30.43 in /  1030.4 hPa WNW 2.2 mph /  3.5 km/h 4.0 mph /  6.4 km/h 46 % 0.00 in /  0 mm
14:15 33.4 °F /  0.8 °C 14.8 °F /  -9.6 °C 30.42 in /  1030 hPa NNW 2.2 mph /  3.5 km/h 3.5 mph /  5.6 km/h 46 % 0.00 in /  0 mm
14:20 34.0 °F /  1.1 °C 16.3 °F /  -8.7 °C 30.42 in /  1030 hPa NW 2.7 mph /  4.3 km/h 5.0 mph /  8 km/h 48 % 0.00 in /  0 mm
14:25 34.1 °F /  1.2 °C 14.9 °F /  -9.5 °C 30.42 in /  1030 hPa North 3.6 mph /  5.8 km/h 5.8 mph /  9.3 km/h 45 % 0.00 in /  0 mm
14:30 34.3 °F /  1.3 °C 16.1 °F /  -8.8 °C 30.42 in /  1030 hPa North 5.0 mph /  8 km/h 10.4 mph /  16.7 km/h 47 % 0.00 in /  0 mm
14:35 34.6 °F /  1.4 °C 15.9 °F /  -8.9 °C 30.41 in /  1029.7 hPa NNE 5.6 mph /  9 km/h 8.0 mph /  12.9 km/h 46 % 0.00 in /  0 mm
14:40 34.3 °F /  1.3 °C 14.6 °F /  -9.7 °C 30.41 in /  1029.7 hPa NNE 3.8 mph /  6.1 km/h 6.9 mph /  11.1 km/h 44 % 0.00 in /  0 mm
14:45 34.5 °F /  1.4 °C 15.8 °F /  -9 °C 30.40 in /  1029.3 hPa North 3.5 mph /  5.6 km/h 5.8 mph /  9.3 km/h 46 % 0.00 in /  0 mm
14:50 34.8 °F /  1.6 °C 15.1 °F /  -9.4 °C 30.40 in /  1029.3 hPa NNW 5.6 mph /  9 km/h 8.1 mph /  13 km/h 44 % 0.00 in /  0 mm
14:55 34.6 °F /  1.4 °C 14.4 °F /  -9.8 °C 30.40 in /  1029.3 hPa NNW 4.6 mph /  7.4 km/h 5.8 mph /  9.3 km/h 43 % 0.00 in /  0 mm
15:00 34.7 °F /  1.5 °C 15.5 °F /  -9.2 °C 30.40 in /  1029.3 hPa North 3.8 mph /  6.1 km/h 6.0 mph /  9.7 km/h 45 % 0.00 in /  0 mm
15:05 34.7 °F /  1.5 °C 15.0 °F /  -9.4 °C 30.40 in /  1029.3 hPa NNW 4.3 mph /  6.9 km/h 8.1 mph /  13 km/h 44 % 0.00 in /  0 mm
15:10 34.7 °F /  1.5 °C 16.0 °F /  -8.9 °C 30.40 in /  1029.3 hPa NNW 3.0 mph /  4.8 km/h 4.6 mph /  7.4 km/h 46 % 0.00 in /  0 mm
15:15 34.7 °F /  1.5 °C 15.5 °F /  -9.2 °C 30.39 in /  1029 hPa North 3.7 mph /  6 km/h 5.8 mph /  9.3 km/h 45 % 0.00 in /  0 mm
15:20 34.8 °F /  1.6 °C 15.1 °F /  -9.4 °C 30.39 in /  1029 hPa NNW 4.1 mph /  6.6 km/h 6.0 mph /  9.7 km/h 44 % 0.00 in /  0 mm
15:25 34.6 °F /  1.4 °C 15.4 °F /  -9.2 °C 30.39 in /  1029 hPa NE 3.9 mph /  6.3 km/h 4.6 mph /  7.4 km/h 45 % 0.00 in /  0 mm
15:30 34.4 °F /  1.3 °C 14.2 °F /  -9.9 °C 30.39 in /  1029 hPa ENE 3.6 mph /  5.8 km/h 6.9 mph /  11.1 km/h 43 % 0.00 in /  0 mm
15:35 34.1 °F /  1.2 °C 14.4 °F /  -9.8 °C 30.39 in /  1029 hPa NE 2.3 mph /  3.7 km/h 3.5 mph /  5.6 km/h 44 % 0.00 in /  0 mm
15:40 33.8 °F /  1 °C 14.7 °F /  -9.6 °C 30.39 in /  1029 hPa NE 1.6 mph /  2.6 km/h 3.5 mph /  5.6 km/h 45 % 0.00 in /  0 mm
15:45 33.6 °F /  0.9 °C 13.5 °F /  -10.3 °C 30.38 in /  1028.7 hPa ENE 3.0 mph /  4.8 km/h 4.6 mph /  7.4 km/h 43 % 0.00 in /  0 mm
15:50 33.4 °F /  0.8 °C 13.3 °F /  -10.4 °C 30.38 in /  1028.7 hPa NNE 2.5 mph /  4 km/h 4.0 mph /  6.4 km/h 43 % 0.00 in /  0 mm
15:55 33.4 °F /  0.8 °C 13.8 °F /  -10.1 °C 30.38 in /  1028.7 hPa NE 3.3 mph /  5.3 km/h 4.6 mph /  7.4 km/h 44 % 0.00 in /  0 mm
16:00 33.3 °F /  0.7 °C 13.2 °F /  -10.4 °C 30.38 in /  1028.7 hPa NE 2.4 mph /  3.9 km/h 3.5 mph /  5.6 km/h 43 % 0.00 in /  0 mm
16:05 33.3 °F /  0.7 °C 13.7 °F /  -10.2 °C 30.38 in /  1028.7 hPa ENE 3.6 mph /  5.8 km/h 5.0 mph /  8 km/h 44 % 0.00 in /  0 mm
16:10 33.1 °F /  0.6 °C 13.5 °F /  -10.3 °C 30.38 in /  1028.7 hPa NNE 3.1 mph /  5 km/h 3.5 mph /  5.6 km/h 44 % 0.00 in /  0 mm
16:15 33.0 °F /  0.6 °C 13.4 °F /  -10.3 °C 30.38 in /  1028.7 hPa NE 2.3 mph /  3.7 km/h 4.6 mph /  7.4 km/h 44 % 0.00 in /  0 mm
16:20 33.0 °F /  0.6 °C 13.9 °F /  -10.1 °C 30.37 in /  1028.3 hPa ENE 2.4 mph /  3.9 km/h 4.6 mph /  7.4 km/h 45 % 0.00 in /  0 mm
16:25 32.8 °F /  0.4 °C 14.3 °F /  -9.8 °C 30.37 in /  1028.3 hPa ENE 4.7 mph /  7.6 km/h 6.9 mph /  11.1 km/h 46 % 0.00 in /  0 mm
16:30 32.5 °F /  0.3 °C 13.5 °F /  -10.3 °C 30.36 in /  1028 hPa ENE 1.6 mph /  2.6 km/h 3.5 mph /  5.6 km/h 45 % 0.00 in /  0 mm
16:36 32.3 °F /  0.2 °C 14.3 °F /  -9.8 °C 30.36 in /  1028 hPa NE 2.4 mph /  3.9 km/h 3.5 mph /  5.6 km/h 47 % 0.00 in /  0 mm
16:41 32.2 °F /  0.1 °C 13.7 °F /  -10.2 °C 30.36 in /  1028 hPa NE 2.5 mph /  4 km/h 5.8 mph /  9.3 km/h 46 % 0.00 in /  0 mm
16:46 32.2 °F /  0.1 °C 14.2 °F /  -9.9 °C 30.36 in /  1028 hPa NNE 2.8 mph /  4.5 km/h 4.6 mph /  7.4 km/h 47 % 0.00 in /  0 mm
16:51 32.2 °F /  0.1 °C 14.7 °F /  -9.6 °C 30.35 in /  1027.7 hPa ENE 2.7 mph /  4.3 km/h 6.9 mph /  11.1 km/h 48 % 0.00 in /  0 mm
16:56 31.9 °F /  -0.1 °C 13.4 °F /  -10.3 °C 30.35 in /  1027.7 hPa ENE 2.9 mph /  4.7 km/h 4.6 mph /  7.4 km/h 46 % 0.00 in /  0 mm
17:01 31.8 °F /  -0.1 °C 14.3 °F /  -9.8 °C 30.35 in /  1027.7 hPa ENE 2.8 mph /  4.5 km/h 4.6 mph /  7.4 km/h 48 % 0.00 in /  0 mm
17:06 31.7 °F /  -0.2 °C 14.7 °F /  -9.6 °C 30.35 in /  1027.7 hPa ENE 1.8 mph /  2.9 km/h 3.5 mph /  5.6 km/h 49 % 0.00 in /  0 mm
17:11 31.6 °F /  -0.2 °C 14.1 °F /  -9.9 °C 30.35 in /  1027.7 hPa ENE 2.3 mph /  3.7 km/h 4.0 mph /  6.4 km/h 48 % 0.00 in /  0 mm
17:16 31.5 °F /  -0.3 °C 14.5 °F /  -9.7 °C 30.35 in /  1027.7 hPa ENE 3.6 mph /  5.8 km/h 6.9 mph /  11.1 km/h 49 % 0.00 in /  0 mm
17:21 31.4 °F /  -0.3 °C 14.9 °F /  -9.5 °C 30.35 in /  1027.7 hPa ENE 3.0 mph /  4.8 km/h 5.0 mph /  8 km/h 50 % 0.00 in /  0 mm
17:26 31.3 °F /  -0.4 °C 15.2 °F /  -9.3 °C 30.35 in /  1027.7 hPa ENE 0.3 mph /  0.5 km/h 2.3 mph /  3.7 km/h 51 % 0.00 in /  0 mm
17:31 31.4 °F /  -0.3 °C 15.8 °F /  -9 °C 30.35 in /  1027.7 hPa ENE 0.6 mph /  1 km/h 2.3 mph /  3.7 km/h 52 % 0.00 in /  0 mm
17:36 31.4 °F /  -0.3 °C 16.2 °F /  -8.8 °C 30.35 in /  1027.7 hPa NE 1.9 mph /  3.1 km/h 3.5 mph /  5.6 km/h 53 % 0.00 in /  0 mm
17:41 31.5 °F /  -0.3 °C 16.3 °F /  -8.7 °C 30.35 in /  1027.7 hPa SE 3.0 mph /  4.8 km/h 5.8 mph /  9.3 km/h 53 % 0.00 in /  0 mm
17:46 31.7 °F /  -0.2 °C 16.1 °F /  -8.8 °C 30.35 in /  1027.7 hPa SE 2.5 mph /  4 km/h 5.8 mph /  9.3 km/h 52 % 0.00 in /  0 mm
17:51 31.9 °F /  -0.1 °C 16.2 °F /  -8.8 °C 30.35 in /  1027.7 hPa SE 4.4 mph /  7.1 km/h 9.0 mph /  14.5 km/h 52 % 0.00 in /  0 mm
17:56 31.9 °F /  -0.1 °C 17.1 °F /  -8.3 °C 30.35 in /  1027.7 hPa SE 3.9 mph /  6.3 km/h 9.2 mph /  14.8 km/h 54 % 0.00 in /  0 mm
18:01 31.8 °F /  -0.1 °C 16.6 °F /  -8.6 °C 30.36 in /  1028 hPa SSE 4.4 mph /  7.1 km/h 9.2 mph /  14.8 km/h 53 % 0.00 in /  0 mm
18:07 31.6 °F /  -0.2 °C 17.3 °F /  -8.2 °C 30.35 in /  1027.7 hPa ESE 3.1 mph /  5 km/h 5.0 mph /  8 km/h 55 % 0.00 in /  0 mm
18:12 31.5 °F /  -0.3 °C 17.2 °F /  -8.2 °C 30.35 in /  1027.7 hPa SE 2.2 mph /  3.5 km/h 5.8 mph /  9.3 km/h 55 % 0.00 in /  0 mm
18:17 31.3 °F /  -0.4 °C 16.6 °F /  -8.6 °C 30.35 in /  1027.7 hPa SSE 1.5 mph /  2.4 km/h 4.6 mph /  7.4 km/h 54 % 0.00 in /  0 mm
18:27 31.0 °F /  -0.6 °C 16.7 °F /  -8.5 °C 30.36 in /  1028 hPa SSE 1.4 mph /  2.3 km/h 3.5 mph /  5.6 km/h 55 % 0.00 in /  0 mm
18:32 30.9 °F /  -0.6 °C 16.6 °F /  -8.6 °C 30.35 in /  1027.7 hPa SSE 5.5 mph /  8.9 km/h 6.9 mph /  11.1 km/h 55 % 0.00 in /  0 mm
18:37 30.7 °F /  -0.7 °C 16.8 °F /  -8.4 °C 30.36 in /  1028 hPa SE 3.3 mph /  5.3 km/h 6.9 mph /  11.1 km/h 56 % 0.00 in /  0 mm
18:42 30.5 °F /  -0.8 °C 16.7 °F /  -8.5 °C 30.35 in /  1027.7 hPa SSE 4.3 mph /  6.9 km/h 8.1 mph /  13 km/h 56 % 0.00 in /  0 mm
18:47 30.3 °F /  -0.9 °C 16.9 °F /  -8.4 °C 30.35 in /  1027.7 hPa SE 2.3 mph /  3.7 km/h 7.0 mph /  11.3 km/h 57 % 0.00 in /  0 mm
18:52 30.2 °F /  -1 °C 16.8 °F /  -8.4 °C 30.35 in /  1027.7 hPa SSE 2.9 mph /  4.7 km/h 6.9 mph /  11.1 km/h 57 % 0.00 in /  0 mm
18:57 30.0 °F /  -1.1 °C 16.6 °F /  -8.6 °C 30.35 in /  1027.7 hPa SSE 4.4 mph /  7.1 km/h 8.1 mph /  13 km/h 57 % 0.00 in /  0 mm
19:02 29.8 °F /  -1.2 °C 17.2 °F /  -8.2 °C 30.34 in /  1027.3 hPa SE 2.6 mph /  4.2 km/h 5.8 mph /  9.3 km/h 59 % 0.00 in /  0 mm
19:07 29.7 °F /  -1.3 °C 17.5 °F /  -8.1 °C 30.34 in /  1027.3 hPa SE 2.4 mph /  3.9 km/h 4.6 mph /  7.4 km/h 60 % 0.00 in /  0 mm
19:12 29.6 °F /  -1.3 °C 17.4 °F /  -8.1 °C 30.34 in /  1027.3 hPa SSE 5.1 mph /  8.2 km/h 8.0 mph /  12.9 km/h 60 % 0.00 in /  0 mm
19:17 29.4 °F /  -1.4 °C 17.2 °F /  -8.2 °C 30.34 in /  1027.3 hPa SSE 3.4 mph /  5.5 km/h 5.0 mph /  8 km/h 60 % 0.00 in /  0 mm
19:22 29.2 °F /  -1.6 °C 17.4 °F /  -8.1 °C 30.34 in /  1027.3 hPa SSE 3.4 mph /  5.5 km/h 5.0 mph /  8 km/h 61 % 0.00 in /  0 mm
19:27 29.1 °F /  -1.6 °C 17.3 °F /  -8.2 °C 30.34 in /  1027.3 hPa SE 4.4 mph /  7.1 km/h 7.0 mph /  11.3 km/h 61 % 0.00 in /  0 mm
19:32 29.1 °F /  -1.6 °C 17.7 °F /  -7.9 °C 30.35 in /  1027.7 hPa SE 3.7 mph /  6 km/h 4.6 mph /  7.4 km/h 62 % 0.00 in /  0 mm
19:37 29.0 °F /  -1.7 °C 18.0 °F /  -7.8 °C 30.35 in /  1027.7 hPa SSE 2.8 mph /  4.5 km/h 5.8 mph /  9.3 km/h 63 % 0.00 in /  0 mm
19:42 29.0 °F /  -1.7 °C 18.0 °F /  -7.8 °C 30.35 in /  1027.7 hPa SSE 2.0 mph /  3.2 km/h 6.9 mph /  11.1 km/h 63 % 0.00 in /  0 mm
19:47 28.9 °F /  -1.7 °C 17.9 °F /  -7.8 °C 30.35 in /  1027.7 hPa SSE 1.5 mph /  2.4 km/h 3.5 mph /  5.6 km/h 63 % 0.00 in /  0 mm
19:52 28.9 °F /  -1.7 °C 18.2 °F /  -7.7 °C 30.34 in /  1027.3 hPa SSE 4.5 mph /  7.2 km/h 6.0 mph /  9.7 km/h 64 % 0.00 in /  0 mm
19:58 28.8 °F /  -1.8 °C 18.1 °F /  -7.7 °C 30.35 in /  1027.7 hPa SSE 3.9 mph /  6.3 km/h 6.9 mph /  11.1 km/h 64 % 0.00 in /  0 mm
20:03 28.8 °F /  -1.8 °C 18.5 °F /  -7.5 °C 30.35 in /  1027.7 hPa SSE 5.0 mph /  8 km/h 5.8 mph /  9.3 km/h 65 % 0.00 in /  0 mm
20:08 28.7 °F /  -1.8 °C 18.8 °F /  -7.3 °C 30.34 in /  1027.3 hPa SSE 2.0 mph /  3.2 km/h 6.0 mph /  9.7 km/h 66 % 0.00 in /  0 mm
20:13 28.7 °F /  -1.8 °C 18.8 °F /  -7.3 °C 30.33 in /  1027 hPa SSE 2.0 mph /  3.2 km/h 7.0 mph /  11.3 km/h 66 % 0.00 in /  0 mm
20:18 28.7 °F /  -1.8 °C 18.8 °F /  -7.3 °C 30.33 in /  1027 hPa SSE 3.6 mph /  5.8 km/h 4.6 mph /  7.4 km/h 66 % 0.00 in /  0 mm
20:23 28.7 °F /  -1.8 °C 19.1 °F /  -7.2 °C 30.34 in /  1027.3 hPa SSE 2.0 mph /  3.2 km/h 5.0 mph /  8 km/h 67 % 0.00 in /  0 mm
20:28 28.7 °F /  -1.8 °C 19.1 °F /  -7.2 °C 30.34 in /  1027.3 hPa SSE 1.0 mph /  1.6 km/h 5.0 mph /  8 km/h 67 % 0.00 in /  0 mm
20:33 28.6 °F /  -1.9 °C 19.0 °F /  -7.2 °C 30.34 in /  1027.3 hPa SSE 2.0 mph /  3.2 km/h 5.0 mph /  8 km/h 67 % 0.00 in /  0 mm
20:38 28.6 °F /  -1.9 °C 19.4 °F /  -7 °C 30.34 in /  1027.3 hPa ESE 1.5 mph /  2.4 km/h 3.5 mph /  5.6 km/h 68 % 0.00 in /  0 mm
20:43 28.7 °F /  -1.8 °C 19.4 °F /  -7 °C 30.34 in /  1027.3 hPa SE 1.0 mph /  1.6 km/h 3.0 mph /  4.8 km/h 68 % 0.00 in /  0 mm
20:48 28.7 °F /  -1.8 °C 19.8 °F /  -6.8 °C 30.34 in /  1027.3 hPa SSE 0.5 mph /  0.8 km/h 3.0 mph /  4.8 km/h 69 % 0.00 in /  0 mm
20:53 28.7 °F /  -1.8 °C 19.8 °F /  -6.8 °C 30.33 in /  1027 hPa Calm   2.0 mph /  3.2 km/h 69 % 0.00 in /  0 mm
20:58 28.7 °F /  -1.8 °C 19.8 °F /  -6.8 °C 30.34 in /  1027.3 hPa SSE 0.1 mph /  0.2 km/h 1.2 mph /  1.9 km/h 69 % 0.00 in /  0 mm
21:03 28.7 °F /  -1.8 °C 19.8 °F /  -6.8 °C 30.34 in /  1027.3 hPa Calm   1.2 mph /  1.9 km/h 69 % 0.00 in /  0 mm
21:08 28.8 °F /  -1.8 °C 19.9 °F /  -6.7 °C 30.34 in /  1027.3 hPa SSE 0.2 mph /  0.3 km/h 2.3 mph /  3.7 km/h 69 % 0.00 in /  0 mm
21:13 28.8 °F /  -1.8 °C 19.9 °F /  -6.7 °C 30.33 in /  1027 hPa Calm   2.0 mph /  3.2 km/h 69 % 0.00 in /  0 mm
21:18 28.8 °F /  -1.8 °C 19.9 °F /  -6.7 °C 30.34 in /  1027.3 hPa Calm     69 % 0.00 in /  0 mm
21:23 28.9 °F /  -1.7 °C 20.0 °F /  -6.7 °C 30.34 in /  1027.3 hPa SSE 1.1 mph /  1.8 km/h 3.0 mph /  4.8 km/h 69 % 0.00 in /  0 mm
21:28 28.9 °F /  -1.7 °C 20.0 °F /  -6.7 °C 30.34 in /  1027.3 hPa SSE 1.1 mph /  1.8 km/h 2.3 mph /  3.7 km/h 69 % 0.00 in /  0 mm
21:33 28.9 °F /  -1.7 °C 20.3 °F /  -6.5 °C 30.34 in /  1027.3 hPa SSE 1.7 mph /  2.7 km/h 3.5 mph /  5.6 km/h 70 % 0.00 in /  0 mm
21:38 29.0 °F /  -1.7 °C 20.4 °F /  -6.4 °C 30.34 in /  1027.3 hPa South 0.1 mph /  0.2 km/h 1.2 mph /  1.9 km/h 70 % 0.00 in /  0 mm
21:43 29.0 °F /  -1.7 °C 20.4 °F /  -6.4 °C 30.33 in /  1027 hPa South 0.2 mph /  0.3 km/h 1.2 mph /  1.9 km/h 70 % 0.00 in /  0 mm
21:48 29.1 °F /  -1.6 °C 20.5 °F /  -6.4 °C 30.33 in /  1027 hPa Calm   1.2 mph /  1.9 km/h 70 % 0.00 in /  0 mm
21:53 29.2 °F /  -1.6 °C 20.6 °F /  -6.3 °C 30.32 in /  1026.6 hPa ESE 1.0 mph /  1.6 km/h 3.5 mph /  5.6 km/h 70 % 0.00 in /  0 mm
21:59 29.2 °F /  -1.6 °C 20.6 °F /  -6.3 °C 30.32 in /  1026.6 hPa ESE 1.6 mph /  2.6 km/h 2.3 mph /  3.7 km/h 70 % 0.00 in /  0 mm
22:04 29.2 °F /  -1.6 °C 21.0 °F /  -6.1 °C 30.32 in /  1026.6 hPa ESE 0.4 mph /  0.6 km/h 2.0 mph /  3.2 km/h 71 % 0.00 in /  0 mm
22:09 29.3 °F /  -1.5 °C 21.1 °F /  -6.1 °C 30.31 in /  1026.3 hPa ESE 1.1 mph /  1.8 km/h 2.3 mph /  3.7 km/h 71 % 0.00 in /  0 mm
22:14 29.3 °F /  -1.5 °C 21.1 °F /  -6.1 °C 30.31 in /  1026.3 hPa ESE 1.5 mph /  2.4 km/h 2.3 mph /  3.7 km/h 71 % 0.00 in /  0 mm
22:19 29.3 °F /  -1.5 °C 21.1 °F /  -6.1 °C 30.31 in /  1026.3 hPa ESE 0.8 mph /  1.3 km/h 2.3 mph /  3.7 km/h 71 % 0.00 in /  0 mm
22:24 29.3 °F /  -1.5 °C 20.7 °F /  -6.3 °C 30.31 in /  1026.3 hPa ESE 0.1 mph /  0.2 km/h 1.2 mph /  1.9 km/h 70 % 0.00 in /  0 mm
22:29 29.4 °F /  -1.4 °C 21.2 °F /  -6 °C 30.31 in /  1026.3 hPa Calm   1.2 mph /  1.9 km/h 71 % 0.00 in /  0 mm
22:34 29.4 °F /  -1.4 °C 21.2 °F /  -6 °C 30.31 in /  1026.3 hPa Calm   1.2 mph /  1.9 km/h 71 % 0.00 in /  0 mm
22:39 29.4 °F /  -1.4 °C 21.2 °F /  -6 °C 30.32 in /  1026.6 hPa ESE 0.1 mph /  0.2 km/h 2.3 mph /  3.7 km/h 71 % 0.00 in /  0 mm
22:44 29.5 °F /  -1.4 °C 21.3 °F /  -5.9 °C 30.32 in /  1026.6 hPa Calm   1.2 mph /  1.9 km/h 71 % 0.00 in /  0 mm
22:49 29.5 °F /  -1.4 °C 21.3 °F /  -5.9 °C 30.31 in /  1026.3 hPa ESE 0.1 mph /  0.2 km/h 1.2 mph /  1.9 km/h 71 % 0.00 in /  0 mm
22:54 29.5 °F /  -1.4 °C 21.3 °F /  -5.9 °C 30.31 in /  1026.3 hPa ESE 1.0 mph /  1.6 km/h 2.3 mph /  3.7 km/h 71 % 0.00 in /  0 mm
22:59 29.6 °F /  -1.3 °C 21.3 °F /  -5.9 °C 30.30 in /  1026 hPa ESE 1.8 mph /  2.9 km/h 3.5 mph /  5.6 km/h 71 % 0.00 in /  0 mm
23:04 29.6 °F /  -1.3 °C 21.7 °F /  -5.7 °C 30.29 in /  1025.6 hPa East 3.5 mph /  5.6 km/h 4.6 mph /  7.4 km/h 72 % 0.00 in /  0 mm
23:09 29.7 °F /  -1.3 °C 22.1 °F /  -5.5 °C 30.29 in /  1025.6 hPa East 2.5 mph /  4 km/h 5.0 mph /  8 km/h 73 % 0.00 in /  0 mm
23:14 29.8 °F /  -1.2 °C 22.2 °F /  -5.4 °C 30.29 in /  1025.6 hPa East 1.5 mph /  2.4 km/h 2.3 mph /  3.7 km/h 73 % 0.00 in /  0 mm
23:19 29.8 °F /  -1.2 °C 22.2 °F /  -5.4 °C 30.29 in /  1025.6 hPa East 1.4 mph /  2.3 km/h 2.3 mph /  3.7 km/h 73 % 0.00 in /  0 mm
23:24 29.9 °F /  -1.2 °C 22.3 °F /  -5.4 °C 30.27 in /  1024.9 hPa East 3.4 mph /  5.5 km/h 5.8 mph /  9.3 km/h 73 % 0.00 in /  0 mm
23:29 30.0 °F /  -1.1 °C 22.4 °F /  -5.3 °C 30.27 in /  1024.9 hPa East 3.6 mph /  5.8 km/h 5.0 mph /  8 km/h 73 % 0.00 in /  0 mm
23:34 30.0 °F /  -1.1 °C 22.4 °F /  -5.3 °C 30.27 in /  1024.9 hPa East 3.5 mph /  5.6 km/h 5.8 mph /  9.3 km/h 73 % 0.00 in /  0 mm
23:39 30.1 °F /  -1.1 °C 22.5 °F /  -5.3 °C 30.27 in /  1024.9 hPa East 2.9 mph /  4.7 km/h 4.6 mph /  7.4 km/h 73 % 0.00 in /  0 mm
23:44 30.2 °F /  -1 °C 22.9 °F /  -5.1 °C 30.26 in /  1024.6 hPa East 3.8 mph /  6.1 km/h 5.0 mph /  8 km/h 74 % 0.00 in /  0 mm
23:49 30.3 °F /  -0.9 °C 22.7 °F /  -5.2 °C 30.27 in /  1024.9 hPa East 3.1 mph /  5 km/h 5.0 mph /  8 km/h 73 % 0.00 in /  0 mm
23:55 30.3 °F /  -0.9 °C 23.0 °F /  -5 °C 30.26 in /  1024.6 hPa East 4.2 mph /  6.8 km/h 6.0 mph /  9.7 km/h 74 % 0.00 in /  0 mm
Crab Meadow Weather
Compliments of Weather Underground - 3 mb

Script developed by  Jim McMurry - jmcmurry@mwt.net Adapted for the template by  Wim van der Kuil - Leuven-Template.eu

Cloud Base: The cloud base is the distance from the sea level to the base of the clouds. It is estimated using the current temperature and humidity to indicate an altitude where the air could be cold enough for clouds to form. There may or may not be clouds at that altitude (or at any altitude)